Time;durP1;ratioP1;P1;durP2;ratioP2;P2;SDS_P1;SDS_P2;PMS_P1;PMS_P2;Temp;Humidity;BMP_temperature;BMP_pressure;BME280_temperature;BME280_humidity;BME280_pressure;Samples;Min_cycle;Max_cycle;Signal;HPM_P1;HPM_P2
2024/02/05 00:03:04;;;;;;;6.60;1.60;;;;;;;8.18;100.00;99620.08;181844;1254;43808;-84
2024/02/05 00:07:07;;;;;;;1.60;0.90;;;;;;;8.23;100.00;99613.13;181898;1253;44132;-83
2024/02/05 00:11:11;;;;;;;2.40;0.90;;;;;;;8.25;100.00;99611.35;182000;1252;43750;-84
2024/02/05 00:15:14;;;;;;;4.10;1.10;;;;;;;8.26;100.00;99600.00;181875;1254;57945;-83
2024/02/05 00:19:17;;;;;;;2.40;1.00;;;;;;;8.25;100.00;99589.98;181856;1254;44042;-83
2024/02/05 00:23:20;;;;;;;2.20;0.80;;;;;;;8.24;100.00;99579.95;181925;1253;44283;-83
2024/02/05 00:27:23;;;;;;;2.90;1.40;;;;;;;8.28;100.00;99574.58;181786;1253;44231;-83
2024/02/05 00:31:26;;;;;;;2.40;1.90;;;;;;;8.28;100.00;99578.66;181767;1254;43879;-84
2024/02/05 00:35:30;;;;;;;1.60;1.00;;;;;;;8.27;100.00;99567.73;181906;1253;58381;-83
2024/02/05 00:39:33;;;;;;;0.30;0.30;;;;;;;8.21;100.00;99550.94;181733;1254;44121;-84
2024/02/05 00:43:36;;;;;;;2.70;0.80;;;;;;;8.24;100.00;99543.11;181920;1254;44224;-83
2024/02/05 00:47:39;;;;;;;1.10;0.90;;;;;;;8.26;100.00;99535.13;181877;1256;43871;-83
2024/02/05 00:51:42;;;;;;;1.90;1.30;;;;;;;8.27;100.00;99521.48;181666;1253;43954;-83
2024/02/05 00:55:46;;;;;;;2.30;0.90;;;;;;;8.26;100.00;99512.34;181627;1253;58205;-83
2024/02/05 00:59:49;;;;;;;1.10;0.50;;;;;;;8.20;100.00;99506.30;181770;1254;44181;-84
2024/02/05 01:03:53;;;;;;;1.20;1.10;;;;;;;8.17;100.00;99492.65;181947;1254;43768;-82
2024/02/05 01:07:56;;;;;;;0.50;0.50;;;;;;;8.18;100.00;99481.76;181644;1253;43836;-82
2024/02/05 01:12:00;;;;;;;1.20;1.10;;;;;;;8.21;100.00;99478.14;181921;1254;43960;-82
2024/02/05 01:16:04;;;;;;;1.00;0.80;;;;;;;8.34;100.00;99470.71;181587;1255;60119;-84
2024/02/05 01:20:10;;;;;;;0.80;0.60;;;;;;;8.47;100.00;99450.83;181589;1254;44219;-82
2024/02/05 01:24:14;;;;;;;1.20;0.60;;;;;;;8.57;100.00;99438.20;181731;1254;44820;-83
2024/02/05 01:28:17;;;;;;;1.30;0.70;;;;;;;8.70;100.00;99434.29;181641;1256;44229;-83
2024/02/05 01:32:21;;;;;;;3.50;0.50;;;;;;;8.85;100.00;99423.23;181906;1253;43772;-84
2024/02/05 01:36:24;;;;;;;0.50;0.50;;;;;;;9.00;100.00;99414.31;181764;1253;59588;-83
2024/02/05 01:40:27;;;;;;;2.80;0.40;;;;;;;9.13;100.00;99407.50;181773;1253;44088;-83
2024/02/05 01:44:30;;;;;;;1.00;0.40;;;;;;;9.28;100.00;99394.29;181922;1254;44163;-83
2024/02/05 01:48:34;;;;;;;1.00;0.30;;;;;;;9.48;100.00;99389.82;181778;1253;44002;-82
2024/02/05 01:52:42;;;;;;;0.20;0.20;;;;;;;9.67;100.00;99368.81;181710;1254;44097;-83
2024/02/05 01:56:46;;;;;;;1.40;0.40;;;;;;;9.85;100.00;99363.95;181826;1254;59043;-83
2024/02/05 02:00:49;;;;;;;1.90;0.70;;;;;;;9.98;100.00;99354.33;181770;1254;43822;-83
2024/02/05 02:04:55;;;;;;;2.20;0.90;;;;;;;10.11;100.00;99349.84;181875;1255;43702;-83
2024/02/05 02:08:59;;;;;;;0.90;0.30;;;;;;;10.20;100.00;99352.27;181794;1253;44040;-81
2024/02/05 02:13:03;;;;;;;0.30;0.30;;;;;;;10.31;100.00;99342.51;181898;1252;44297;-82
2024/02/05 02:17:06;;;;;;;1.10;0.40;;;;;;;10.38;100.00;99339.38;181707;1254;60117;-81
2024/02/05 02:21:13;;;;;;;0.80;0.30;;;;;;;10.45;100.00;99330.91;181844;1253;43850;-81
2024/02/05 02:25:16;;;;;;;0.80;0.60;;;;;;;10.49;100.00;99322.38;181894;1254;43970;-82
2024/02/05 02:29:19;;;;;;;1.30;0.30;;;;;;;10.57;100.00;99311.86;181852;1254;44136;-81
2024/02/05 02:33:30;;;;;;;0.40;0.30;;;;;;;10.65;100.00;99313.60;181891;1255;44159;-82
2024/02/05 02:37:40;;;;;;;0.30;0.20;;;;;;;10.68;100.00;99311.84;181668;1257;60157;-81
2024/02/05 02:41:44;;;;;;;0.70;0.10;;;;;;;10.66;100.00;99307.40;181763;1254;43966;-82
2024/02/05 02:45:49;;;;;;;0.20;0.20;;;;;;;10.69;100.00;99306.23;181856;1254;43860;-81
2024/02/05 02:49:52;;;;;;;0.10;0.10;;;;;;;10.69;100.00;99292.63;181718;1254;44317;-82
2024/02/05 02:53:56;;;;;;;1.10;0.20;;;;;;;10.75;100.00;99279.95;181733;1253;44121;-82
2024/02/05 02:57:59;;;;;;;0.10;0.10;;;;;;;10.81;100.00;99276.95;181931;1254;59129;-81
2024/02/05 03:02:02;;;;;;;0.30;0.20;;;;;;;10.82;100.00;99286.38;181883;1254;44114;-81
2024/02/05 03:06:06;;;;;;;0.10;0.10;;;;;;;10.86;100.00;99276.23;181847;1254;43990;-81
2024/02/05 03:10:10;;;;;;;0.60;0.40;;;;;;;10.91;100.00;99295.23;181775;1254;43810;-82
2024/02/05 03:14:13;;;;;;;1.10;0.30;;;;;;;10.94;100.00;99283.59;181907;1254;43724;-80
2024/02/05 03:18:16;;;;;;;0.90;0.40;;;;;;;10.87;100.00;99297.42;181862;1253;59492;-81
2024/02/05 03:22:20;;;;;;;0.30;0.10;;;;;;;10.89;100.00;99290.48;181730;1252;44195;-81
2024/02/05 03:26:24;;;;;;;0.10;0.10;;;;;;;10.87;100.00;99299.23;181578;1252;288911;-80
2024/02/05 03:30:31;;;;;;;0.30;0.20;;;;;;;10.94;100.00;99298.86;181691;1253;43860;-81
2024/02/05 03:34:34;;;;;;;0.90;0.30;;;;;;;10.97;100.00;99291.20;181785;1254;43892;-82
2024/02/05 03:38:37;;;;;;;0.90;0.40;;;;;;;11.05;100.00;99299.23;181644;1253;57920;-81
2024/02/05 03:42:40;;;;;;;1.10;0.80;;;;;;;11.07;100.00;99286.42;181839;1254;43747;-80
2024/02/05 03:46:44;;;;;;;0.90;0.50;;;;;;;11.08;100.00;99292.36;181873;1254;44008;-80
2024/02/05 03:50:47;;;;;;;0.30;0.20;;;;;;;11.13;100.00;99290.64;181777;1253;44115;-82
2024/02/05 03:54:50;;;;;;;0.10;0.10;;;;;;;11.12;100.00;99301.54;181754;1252;44101;-81
2024/02/05 03:58:53;;;;;;;1.30;0.40;;;;;;;11.14;100.00;99298.35;181862;1254;58635;-81
2024/02/05 04:02:57;;;;;;;0.60;0.30;;;;;;;11.15;100.00;99307.24;181656;1253;44037;-81
2024/02/05 04:07:02;;;;;;;0.20;0.00;;;;;;;11.15;100.00;99296.10;181775;1254;44086;-82
2024/02/05 04:11:06;;;;;;;0.10;0.10;;;;;;;11.14;100.00;99318.22;181871;1254;43707;-81
2024/02/05 04:15:09;;;;;;;0.10;0.10;;;;;;;11.14;100.00;99316.05;181637;1254;44104;-82
2024/02/05 04:19:12;;;;;;;0.10;0.10;;;;;;;11.08;100.00;99317.53;181757;1252;59580;-84
2024/02/05 04:23:16;;;;;;;1.00;0.10;;;;;;;11.06;100.00;99314.70;181689;1254;43869;-84
2024/02/05 04:27:19;;;;;;;0.40;0.10;;;;;;;11.10;100.00;99314.19;181683;1253;44068;-84
2024/02/05 04:31:22;;;;;;;0.20;0.10;;;;;;;11.10;100.00;99307.40;181797;1253;44047;-83
2024/02/05 04:35:25;;;;;;;0.10;0.10;;;;;;;11.09;100.00;99295.09;181650;1254;44062;-84
2024/02/05 04:39:28;;;;;;;0.10;0.00;;;;;;;11.11;100.00;99303.80;181659;1251;58825;-83
2024/02/05 04:43:31;;;;;;;0.10;0.10;;;;;;;11.10;100.00;99306.32;181736;1254;44522;-83
2024/02/05 04:47:35;;;;;;;0.30;0.20;;;;;;;11.18;100.00;99307.29;181862;1253;43866;-84
2024/02/05 04:51:38;;;;;;;3.20;0.10;;;;;;;11.14;100.00;99311.60;181864;1253;43761;-84
2024/02/05 04:55:41;;;;;;;0.80;0.10;;;;;;;11.14;100.00;99308.40;181791;1254;44149;-84
2024/02/05 04:59:45;;;;;;;0.90;0.10;;;;;;;11.10;100.00;99312.60;181764;1253;58201;-84
2024/02/05 05:03:48;;;;;;;0.10;0.00;;;;;;;10.99;100.00;99321.59;181627;1253;43887;-84
2024/02/05 05:07:51;;;;;;;0.10;0.10;;;;;;;11.02;100.00;99323.80;181684;1253;44114;-85
2024/02/05 05:11:55;;;;;;;0.10;0.10;;;;;;;10.95;100.00;99334.59;181721;1254;44000;-84
2024/02/05 05:16:02;;;;;;;0.00;0.00;;;;;;;10.99;100.00;99318.55;181621;1253;44328;-84
2024/02/05 05:20:06;;;;;;;0.10;0.10;;;;;;;10.95;100.00;99312.56;181737;1253;59831;-84
2024/02/05 05:24:10;;;;;;;0.00;0.00;;;;;;;10.93;100.00;99309.98;181666;1253;44174;-84
2024/02/05 05:28:13;;;;;;;0.20;0.10;;;;;;;10.97;100.00;99297.65;181667;1253;44001;-84
2024/02/05 05:32:17;;;;;;;1.00;0.40;;;;;;;11.06;100.00;99316.63;181748;1253;44126;-84
2024/02/05 05:36:20;;;;;;;0.30;0.20;;;;;;;11.03;100.00;99307.95;181731;1253;44073;-84
2024/02/05 05:40:23;;;;;;;0.30;0.30;;;;;;;11.05;100.00;99302.41;181706;1254;59552;-83
2024/02/05 05:44:27;;;;;;;0.10;0.10;;;;;;;11.11;100.00;99309.27;181993;1251;43897;-84
2024/02/05 05:48:30;;;;;;;0.10;0.00;;;;;;;11.15;100.00;99321.48;181872;1253;44222;-84
2024/02/05 05:52:36;;;;;;;0.60;0.10;;;;;;;11.16;100.00;99316.61;181587;1253;43991;-84
2024/02/05 05:56:39;;;;;;;1.60;0.40;;;;;;;11.16;100.00;99329.71;181864;1253;44075;-84
2024/02/05 06:00:42;;;;;;;0.10;0.10;;;;;;;11.15;100.00;99327.70;181679;1253;60064;-84
2024/02/05 06:04:45;;;;;;;0.20;0.10;;;;;;;11.24;100.00;99338.66;181645;1252;44157;-84
2024/02/05 06:08:49;;;;;;;0.30;0.10;;;;;;;11.25;100.00;99335.69;181719;1253;43968;-84
2024/02/05 06:12:52;;;;;;;1.80;0.00;;;;;;;11.32;100.00;99345.19;181601;1253;44169;-84
2024/02/05 06:16:55;;;;;;;1.40;0.30;;;;;;;11.24;100.00;99336.94;181872;1253;44151;-83
2024/02/05 06:20:58;;;;;;;0.40;0.20;;;;;;;11.27;100.00;99348.54;181975;1253;58234;-84
2024/02/05 06:25:02;;;;;;;0.10;0.10;;;;;;;11.25;100.00;99351.89;181728;1252;44301;-84
2024/02/05 06:29:06;;;;;;;2.70;0.40;;;;;;;11.28;100.00;99367.36;181703;1253;44120;-85
2024/02/05 06:33:09;;;;;;;0.30;0.30;;;;;;;11.30;100.00;99373.76;181703;1252;43994;-84
2024/02/05 06:37:12;;;;;;;0.00;0.00;;;;;;;11.30;100.00;99371.45;181853;1253;44204;-84
2024/02/05 06:41:16;;;;;;;0.20;0.20;;;;;;;11.30;100.00;99391.14;181728;1253;59315;-84
2024/02/05 06:45:19;;;;;;;0.40;0.20;;;;;;;11.29;100.00;99396.92;181662;1252;44062;-83
2024/02/05 06:49:22;;;;;;;0.40;0.20;;;;;;;11.29;100.00;99390.91;181992;1252;43817;-84
2024/02/05 06:53:26;;;;;;;0.30;0.30;;;;;;;11.33;100.00;99415.71;181607;1253;44044;-84
2024/02/05 06:57:29;;;;;;;0.30;0.30;;;;;;;11.29;100.00;99421.21;181839;1252;44085;-84
2024/02/05 07:01:32;;;;;;;0.50;0.50;;;;;;;11.34;100.00;99424.45;181548;1254;57828;-84
2024/02/05 07:05:36;;;;;;;1.20;0.40;;;;;;;11.30;100.00;99429.51;181898;1252;43954;-84
2024/02/05 07:09:39;;;;;;;0.20;0.20;;;;;;;11.33;100.00;99443.80;181775;1251;44064;-84
2024/02/05 07:13:43;;;;;;;1.30;0.20;;;;;;;11.33;100.00;99461.70;181705;1251;44093;-84
2024/02/05 07:17:47;;;;;;;0.40;0.30;;;;;;;11.29;100.00;99454.29;181752;1253;43959;-84
2024/02/05 07:21:50;;;;;;;1.90;0.50;;;;;;;11.25;100.00;99454.80;181743;1253;59870;-84
2024/02/05 07:25:54;;;;;;;0.20;0.20;;;;;;;11.26;100.00;99449.23;181838;1252;43805;-84
2024/02/05 07:29:57;;;;;;;0.90;0.30;;;;;;;11.20;100.00;99461.71;182029;1253;44166;-84
2024/02/05 07:34:00;;;;;;;0.20;0.20;;;;;;;11.14;100.00;99455.52;181905;1252;43975;-84
2024/02/05 07:38:03;;;;;;;0.50;0.50;;;;;;;11.14;100.00;99456.78;181822;1253;44155;-85
2024/02/05 07:42:07;;;;;;;0.30;0.30;;;;;;;11.07;100.00;99453.36;181863;1253;58153;-84
2024/02/05 07:46:10;;;;;;;1.30;0.40;;;;;;;11.01;100.00;99470.46;181843;1252;44051;-84
2024/02/05 07:50:14;;;;;;;0.40;0.20;;;;;;;11.03;100.00;99478.09;181649;1252;43958;-84
2024/02/05 07:54:19;;;;;;;0.40;0.20;;;;;;;11.09;100.00;99486.25;181708;1253;43863;-84
2024/02/05 07:58:22;;;;;;;0.50;0.50;;;;;;;11.10;100.00;99483.55;181820;1253;43896;-84
2024/02/05 08:02:26;;;;;;;0.90;0.40;;;;;;;11.22;100.00;99478.20;181797;1252;59488;-84
2024/02/05 08:06:30;;;;;;;0.30;0.30;;;;;;;11.30;100.00;99476.05;181717;1253;43902;-84
2024/02/05 08:10:34;;;;;;;0.40;0.30;;;;;;;11.29;100.00;99474.29;181828;1252;44169;-84
2024/02/05 08:14:38;;;;;;;0.40;0.20;;;;;;;11.26;100.00;99478.88;181704;1253;44137;-85
2024/02/05 08:18:41;;;;;;;0.70;0.40;;;;;;;11.24;100.00;99481.55;181724;1252;44042;-84
2024/02/05 08:22:45;;;;;;;0.90;0.40;;;;;;;11.31;100.00;99479.96;181649;1253;58265;-84
2024/02/05 08:26:50;;;;;;;0.50;0.30;;;;;;;11.30;100.00;99484.81;181882;1252;44330;-84
2024/02/05 08:30:54;;;;;;;0.60;0.50;;;;;;;11.23;100.00;99485.85;181972;1252;44060;-84
2024/02/05 08:34:57;;;;;;;0.60;0.30;;;;;;;11.24;100.00;99469.08;181890;1251;44354;-83
2024/02/05 08:39:01;;;;;;;0.80;0.30;;;;;;;11.21;100.00;99483.23;181888;1253;44175;-84
2024/02/05 08:43:05;;;;;;;1.60;0.60;;;;;;;11.18;100.00;99492.35;181968;1253;60245;-84
2024/02/05 08:47:10;;;;;;;0.30;0.30;;;;;;;11.22;100.00;99497.30;181879;1252;44103;-84
2024/02/05 08:51:14;;;;;;;2.10;0.30;;;;;;;11.31;100.00;99482.63;181889;1252;44289;-84
2024/02/05 08:55:17;;;;;;;2.20;0.40;;;;;;;11.41;100.00;99486.63;182001;1253;44215;-84
2024/02/05 08:59:21;;;;;;;0.60;0.30;;;;;;;11.46;100.00;99485.22;181871;1252;43871;-84
2024/02/05 09:03:25;;;;;;;0.90;0.20;;;;;;;11.53;100.00;99466.67;181678;1253;58313;-84
2024/02/05 09:07:29;;;;;;;0.90;0.70;;;;;;;11.58;100.00;99494.21;181724;1252;44002;-84
2024/02/05 09:11:32;;;;;;;1.50;0.60;;;;;;;11.71;100.00;99500.92;181881;1253;44105;-84
2024/02/05 09:15:47;;;;;;;0.30;0.30;;;;;;;11.72;100.00;99508.29;181889;1252;43892;-84
2024/02/05 09:19:50;;;;;;;0.80;0.60;;;;;;;11.68;100.00;99498.44;181808;1253;43721;-84
2024/02/05 09:23:54;;;;;;;0.70;0.50;;;;;;;11.69;100.00;99516.79;181886;1253;59690;-84
2024/02/05 09:27:57;;;;;;;1.10;0.40;;;;;;;11.72;100.00;99514.38;181701;1252;44997;-84
2024/02/05 09:32:00;;;;;;;0.90;0.80;;;;;;;11.79;100.00;99517.55;181787;1252;44087;-84
2024/02/05 09:36:05;;;;;;;0.60;0.60;;;;;;;11.84;100.00;99517.99;181775;1251;44229;-84
2024/02/05 09:40:08;;;;;;;0.90;0.40;;;;;;;11.93;100.00;99505.88;181795;1251;44114;-84
2024/02/05 09:44:15;;;;;;;2.70;0.50;;;;;;;11.99;100.00;99515.45;181874;1253;57980;-84
2024/02/05 09:48:20;;;;;;;1.00;0.60;;;;;;;12.10;100.00;99516.80;181789;1252;44164;-84
2024/02/05 09:52:41;;;;;;;0.60;0.60;;;;;;;12.20;100.00;99502.02;181927;1252;43925;-84
2024/02/05 09:56:47;;;;;;;0.60;0.60;;;;;;;12.15;100.00;99508.00;181838;1253;43904;-84
2024/02/05 10:00:51;;;;;;;2.00;0.50;;;;;;;12.09;100.00;99516.27;181737;1254;43816;-84
2024/02/05 10:04:56;;;;;;;3.70;0.90;;;;;;;12.09;100.00;99526.35;181671;1253;60566;-85
2024/02/05 10:09:06;;;;;;;0.90;0.80;;;;;;;12.11;100.00;99516.95;181779;1251;43861;-84
2024/02/05 10:13:13;;;;;;;1.40;0.70;;;;;;;12.13;100.00;99521.30;181666;1253;43932;-84
2024/02/05 10:17:16;;;;;;;;;;;;;;;12.22;100.00;99528.85;181712;1253;43786;-84
2024/02/05 10:21:19;;;;;;;3.00;1.30;;;;;;;12.10;100.00;99532.44;181746;1253;44118;-84
2024/02/05 10:25:26;;;;;;;3.10;1.40;;;;;;;12.15;100.00;99520.27;181675;1254;58247;-85
2024/02/05 10:29:30;;;;;;;1.60;1.10;;;;;;;12.10;100.00;99520.27;181772;1252;44173;-85
2024/02/05 10:33:34;;;;;;;4.00;1.80;;;;;;;11.99;100.00;99531.46;181693;1252;44355;-84
2024/02/05 10:37:37;;;;;;;3.60;2.00;;;;;;;11.87;100.00;99538.94;181687;1253;44034;-84
2024/02/05 10:41:40;;;;;;;1.90;1.70;;;;;;;11.87;100.00;99523.71;181684;1252;44327;-84
2024/02/05 10:45:44;;;;;;;2.50;1.50;;;;;;;11.80;100.00;99531.30;181635;1252;57954;-84
2024/02/05 10:49:47;;;;;;;8.50;2.50;;;;;;;11.84;100.00;99496.84;181779;1252;44130;-85
2024/02/05 10:53:52;;;;;;;2.40;1.20;;;;;;;11.87;100.00;99513.73;181894;1251;44135;-84
2024/02/05 10:57:56;;;;;;;4.70;2.00;;;;;;;11.85;100.00;99531.70;181862;1253;44144;-85
2024/02/05 11:02:14;;;;;;;3.80;1.70;;;;;;;11.83;100.00;99512.95;181685;1252;43967;-84
2024/02/05 11:06:19;;;;;;;4.70;2.10;;;;;;;11.77;100.00;99522.00;181767;1252;58248;-84
2024/02/05 11:10:25;;;;;;;4.30;2.10;;;;;;;11.75;100.00;99516.52;181884;1252;43855;-85
2024/02/05 11:14:30;;;;;;;6.10;3.30;;;;;;;11.68;100.00;99520.91;181675;1252;43939;-84
2024/02/05 11:18:39;;;;;;;5.60;2.60;;;;;;;11.80;100.00;99518.55;181740;1252;43792;-85
2024/02/05 11:22:44;;;;;;;3.80;2.50;;;;;;;11.73;100.00;99518.66;181707;1252;44129;-85
2024/02/05 11:26:48;;;;;;;11.40;2.80;;;;;;;11.80;100.00;99502.20;181928;1254;59528;-85
2024/02/05 11:30:51;;;;;;;9.50;3.90;;;;;;;11.80;100.00;99510.70;181643;1252;43847;-84
2024/02/05 11:34:54;;;;;;;10.70;3.40;;;;;;;11.79;100.00;99505.30;181906;1252;43868;-84
2024/02/05 11:39:03;;;;;;;9.70;2.80;;;;;;;11.92;100.00;99514.37;181646;1253;44212;-84
2024/02/05 11:43:06;;;;;;;7.00;2.20;;;;;;;11.90;100.00;99499.83;181746;1252;44161;-85
2024/02/05 11:47:12;;;;;;;11.60;2.50;;;;;;;11.97;100.00;99492.48;181884;1254;59587;-84
2024/02/05 11:51:16;;;;;;;4.40;3.10;;;;;;;12.15;100.00;99490.34;181694;1253;43741;-85
2024/02/05 11:55:22;;;;;;;4.80;3.00;;;;;;;12.36;100.00;99491.98;181793;1253;44256;-85
2024/02/05 11:59:27;;;;;;;5.50;3.00;;;;;;;12.54;100.00;99498.40;181808;1252;44153;-84
2024/02/05 12:03:32;;;;;;;9.00;3.20;;;;;;;12.69;99.85;99466.80;181851;1252;46726;-85
2024/02/05 12:07:35;;;;;;;4.00;3.10;;;;;;;12.72;100.00;99503.27;181713;1252;59213;-84
2024/02/05 12:11:39;;;;;;;6.90;3.70;;;;;;;12.78;99.99;99521.90;181721;1252;43810;-85
2024/02/05 12:15:43;;;;;;;5.10;2.90;;;;;;;12.76;99.85;99529.10;181942;1251;43694;-85
2024/02/05 12:19:47;;;;;;;9.40;3.50;;;;;;;12.64;98.86;99514.30;181876;1253;44155;-84
2024/02/05 12:23:51;;;;;;;7.70;3.60;;;;;;;12.60;99.94;99508.11;181798;1252;43884;-84
2024/02/05 12:27:55;;;;;;;5.20;3.20;;;;;;;12.57;99.42;99502.05;181897;1253;57872;-85
2024/02/05 12:32:05;;;;;;;11.40;4.00;;;;;;;12.46;98.74;99511.98;181865;1254;43997;-84
2024/02/05 12:36:10;;;;;;;5.10;3.30;;;;;;;12.44;98.47;99515.39;181703;1252;44203;-84
2024/02/05 12:40:13;;;;;;;12.10;4.60;;;;;;;12.36;98.58;99524.15;181842;1253;44172;-85
2024/02/05 12:44:18;;;;;;;13.60;5.30;;;;;;;12.36;97.17;99524.89;181856;1253;44034;-85
2024/02/05 12:48:35;;;;;;;13.20;5.10;;;;;;;12.30;96.53;99527.48;181971;1252;57945;-85
2024/02/05 12:52:39;;;;;;;14.20;4.60;;;;;;;12.31;96.13;99516.55;181861;1253;43894;-85
2024/02/05 12:56:42;;;;;;;14.50;4.80;;;;;;;12.22;97.20;99525.40;181765;1252;43877;-85
2024/02/05 13:00:46;;;;;;;8.30;3.80;;;;;;;12.18;97.85;99522.14;181671;1251;43980;-85
2024/02/05 13:04:50;;;;;;;12.50;4.80;;;;;;;12.16;97.03;99513.92;181802;1252;43888;-85
2024/02/05 13:08:58;;;;;;;12.70;5.10;;;;;;;12.15;96.13;99518.84;181695;1252;58218;-84
2024/02/05 13:13:01;;;;;;;10.00;4.20;;;;;;;12.19;94.26;99507.11;181806;1254;44151;-84
2024/02/05 13:17:05;;;;;;;10.90;4.60;;;;;;;12.05;94.50;99526.53;181747;1253;44276;-85
2024/02/05 13:21:09;;;;;;;11.10;5.40;;;;;;;12.04;95.61;99531.14;181695;1253;44236;-85
2024/02/05 13:25:12;;;;;;;14.20;7.80;;;;;;;11.93;96.06;99545.13;181691;1252;44025;-84
2024/02/05 13:29:17;;;;;;;23.60;5.70;;;;;;;11.89;96.58;99548.88;181793;1253;59142;-85
2024/02/05 13:33:20;;;;;;;11.70;5.20;;;;;;;11.92;97.06;99538.01;181621;1253;43901;-85
2024/02/05 13:37:24;;;;;;;8.90;5.40;;;;;;;11.92;96.34;99539.44;181955;1253;44074;-85
2024/02/05 13:41:29;;;;;;;15.70;5.20;;;;;;;11.88;95.36;99545.78;181759;1253;44235;-84
2024/02/05 13:45:32;;;;;;;12.80;5.60;;;;;;;11.82;94.56;99539.64;181790;1253;43843;-84
2024/02/05 13:49:36;;;;;;;10.90;5.40;;;;;;;11.90;92.99;99523.10;181703;1253;58163;-85
2024/02/05 13:53:40;;;;;;;10.70;5.30;;;;;;;12.00;91.83;99527.06;182027;1253;43774;-84
2024/02/05 13:57:43;;;;;;;12.90;4.90;;;;;;;12.03;92.26;99542.59;181987;1253;43867;-85
2024/02/05 14:01:51;;;;;;;9.40;6.50;;;;;;;12.01;92.67;99544.90;181528;1253;44241;-84
2024/02/05 14:05:55;;;;;;;14.20;6.60;;;;;;;11.91;91.96;99548.73;181787;1253;43890;-85
2024/02/05 14:09:58;;;;;;;13.10;5.00;;;;;;;12.04;92.83;99546.43;181717;1253;59110;-83
2024/02/05 14:14:02;;;;;;;12.70;6.10;;;;;;;12.08;92.72;99551.17;181920;1253;44175;-85
2024/02/05 14:18:06;;;;;;;11.60;6.30;;;;;;;12.14;93.79;99537.09;181717;1253;44098;-86
2024/02/05 14:22:10;;;;;;;15.60;6.10;;;;;;;12.12;94.01;99531.92;181700;1253;44169;-85
2024/02/05 14:26:13;;;;;;;19.10;5.50;;;;;;;12.15;92.79;99525.91;181748;1253;44367;-85
2024/02/05 14:30:17;;;;;;;12.20;6.10;;;;;;;12.14;92.16;99524.05;181651;1253;58230;-87
2024/02/05 14:34:22;;;;;;;13.00;5.40;;;;;;;12.21;91.86;99537.11;181573;1253;43921;-89
2024/02/05 14:38:25;;;;;;;13.70;6.50;;;;;;;12.24;89.74;99506.52;181651;1253;44321;-87
2024/02/05 14:42:29;;;;;;;9.90;5.90;;;;;;;12.34;88.02;99520.42;181780;1253;44274;-87
2024/02/05 14:46:32;;;;;;;15.70;6.10;;;;;;;12.30;89.11;99540.63;181933;1253;44081;-89
2024/02/05 14:50:36;;;;;;;14.60;6.60;;;;;;;12.35;90.71;99557.48;181571;1253;59842;-87
2024/02/05 14:54:40;;;;;;;15.40;5.00;;;;;;;12.33;92.84;99560.23;181650;1253;43838;-88
2024/02/05 14:58:43;;;;;;;13.20;4.90;;;;;;;12.26;92.31;99557.78;181661;1253;44207;-88
2024/02/05 15:02:46;;;;;;;21.50;6.70;;;;;;;12.25;91.80;99562.81;181704;1253;43813;-90
2024/02/05 15:06:50;;;;;;;18.50;5.70;;;;;;;12.21;91.82;99570.55;181722;1253;44077;-89
2024/02/05 15:10:53;;;;;;;11.70;6.50;;;;;;;12.20;92.10;99584.64;181818;1254;58235;-88
2024/02/05 15:14:57;;;;;;;14.10;5.90;;;;;;;12.12;91.96;99584.31;181723;1253;44595;-89
2024/02/05 15:19:00;;;;;;;18.60;5.40;;;;;;;12.12;92.12;99594.29;181651;1253;43957;-89
2024/02/05 15:23:04;;;;;;;11.70;5.30;;;;;;;12.14;92.10;99601.20;181939;1253;43735;-90
2024/02/05 15:27:08;;;;;;;9.60;6.20;;;;;;;12.14;91.78;99604.27;181528;1253;247212;-89
2024/02/05 15:31:11;;;;;;;9.20;5.30;;;;;;;12.12;91.25;99605.86;181654;1253;59562;-89
2024/02/05 15:35:14;;;;;;;7.20;5.30;;;;;;;12.06;91.28;99603.27;181918;1252;44074;-89
2024/02/05 15:39:18;;;;;;;12.50;5.80;;;;;;;12.06;91.46;99604.30;181728;1256;43962;-89
2024/02/05 15:43:22;;;;;;;17.90;6.30;;;;;;;12.08;90.93;99600.59;181744;1253;44041;-89
2024/02/05 15:47:25;;;;;;;15.30;7.10;;;;;;;12.08;90.28;99606.48;181945;1253;44129;-89
2024/02/05 15:51:29;;;;;;;15.60;6.20;;;;;;;12.02;89.75;99613.79;181952;1252;60110;-88
2024/02/05 15:55:33;;;;;;;37.80;6.60;;;;;;;12.04;90.60;99616.09;181818;1253;43705;-89
2024/02/05 15:59:36;;;;;;;12.70;5.40;;;;;;;12.05;90.05;99622.92;181943;1252;44053;-89
2024/02/05 16:03:40;;;;;;;12.20;5.20;;;;;;;11.95;89.58;99611.77;181906;1254;43983;-89
2024/02/05 16:07:43;;;;;;;10.20;5.70;;;;;;;11.99;89.40;99630.80;182008;1253;44130;-89
2024/02/05 16:11:47;;;;;;;19.00;5.50;;;;;;;12.04;89.84;99625.84;181790;1253;57027;-89
2024/02/05 16:15:51;;;;;;;15.40;6.30;;;;;;;12.00;90.50;99621.63;181868;1252;44282;-90
2024/02/05 16:19:54;;;;;;;12.20;6.40;;;;;;;11.94;91.03;99625.68;181837;1253;44204;-89
2024/02/05 16:23:59;;;;;;;12.10;5.30;;;;;;;11.92;91.17;99617.60;181733;1254;44199;-89
2024/02/05 16:28:03;;;;;;;15.90;6.30;;;;;;;11.91;91.25;99611.83;181925;1253;44053;-89
2024/02/05 16:32:07;;;;;;;11.00;7.30;;;;;;;11.87;91.67;99626.60;182048;1254;58646;-89
2024/02/05 16:36:13;;;;;;;14.10;6.00;;;;;;;11.85;91.72;99620.73;181709;1254;44062;-89
2024/02/05 16:40:18;;;;;;;12.40;5.90;;;;;;;11.86;91.44;99624.51;181802;1251;44211;-89
2024/02/05 16:44:22;;;;;;;10.70;6.60;;;;;;;11.87;91.55;99626.05;181737;1252;44400;-89
2024/02/05 16:48:26;;;;;;;12.30;6.20;;;;;;;11.88;91.54;99628.59;182005;1253;44072;-89
2024/02/05 16:52:29;;;;;;;12.30;5.40;;;;;;;11.90;91.66;99627.56;181826;1253;58123;-88
2024/02/05 16:56:33;;;;;;;11.50;6.20;;;;;;;11.88;91.83;99625.56;181779;1253;44563;-87
2024/02/05 17:00:37;;;;;;;10.00;5.30;;;;;;;11.89;92.00;99622.48;181895;1252;44333;-88
2024/02/05 17:04:40;;;;;;;17.60;4.70;;;;;;;11.89;91.61;99618.42;181798;1254;44124;-87
2024/02/05 17:08:45;;;;;;;8.50;4.30;;;;;;;11.91;91.45;99615.73;181851;1254;44106;-88
2024/02/05 17:12:48;;;;;;;12.00;5.00;;;;;;;11.92;91.95;99623.58;181789;1252;58451;-88
2024/02/05 17:16:51;;;;;;;32.30;7.00;;;;;;;11.88;91.65;99625.05;181821;1253;44280;-85
2024/02/05 17:21:05;;;;;;;21.50;6.10;;;;;;;11.85;91.47;99616.80;181698;1253;43856;-86
2024/02/05 17:25:08;;;;;;;9.90;5.20;;;;;;;11.89;90.24;99606.98;181734;1253;43792;-86
2024/02/05 17:29:12;;;;;;;17.20;6.50;;;;;;;11.94;89.88;99608.79;181773;1254;43885;-88
2024/02/05 17:33:16;;;;;;;15.10;4.50;;;;;;;11.98;89.74;99620.31;181981;1256;59606;-91
2024/02/05 17:37:21;;;;;;;29.30;5.70;;;;;;;12.04;89.74;99619.98;182040;1253;43952;-88
2024/02/05 17:41:25;;;;;;;15.30;4.40;;;;;;;12.02;89.37;99616.66;181881;1253;43904;-88
2024/02/05 17:45:31;;;;;;;7.80;4.30;;;;;;;12.06;89.41;99629.34;181709;1254;44167;-89
2024/02/05 17:49:36;;;;;;;11.90;5.40;;;;;;;12.04;88.85;99627.27;181809;1256;43697;-87
2024/02/05 17:53:40;;;;;;;11.10;4.50;;;;;;;12.02;88.49;99638.84;181631;1253;57949;-88
2024/02/05 17:57:43;;;;;;;8.60;4.10;;;;;;;11.98;89.33;99638.49;181874;1254;44153;-88
2024/02/05 18:01:47;;;;;;;10.70;4.80;;;;;;;11.83;88.82;99638.70;181835;1252;43754;-88
2024/02/05 18:05:52;;;;;;;15.70;4.60;;;;;;;11.95;88.53;99640.70;181887;1251;43850;-89
2024/02/05 18:09:55;;;;;;;9.70;3.50;;;;;;;11.85;89.53;99641.17;181863;1254;43784;-88
2024/02/05 18:13:58;;;;;;;9.80;5.90;;;;;;;11.80;89.89;99646.77;181787;1256;59281;-88
2024/02/05 18:18:03;;;;;;;13.80;4.80;;;;;;;11.83;89.50;99655.91;181844;1253;44068;-89
2024/02/05 18:22:07;;;;;;;13.90;5.30;;;;;;;11.90;89.67;99650.65;181811;1253;43886;-89
2024/02/05 18:26:11;;;;;;;15.20;4.00;;;;;;;11.89;89.89;99651.59;181829;1253;43700;-88
2024/02/05 18:30:14;;;;;;;17.50;5.40;;;;;;;11.91;89.61;99646.08;181858;1251;43956;-88
2024/02/05 18:34:18;;;;;;;20.40;4.40;;;;;;;11.91;89.73;99649.80;182059;1253;60011;-89
2024/02/05 18:38:22;;;;;;;11.80;4.90;;;;;;;11.88;89.98;99651.51;181774;1255;44228;-88
2024/02/05 18:42:25;;;;;;;16.40;5.20;;;;;;;11.87;89.93;99637.38;181769;1254;44165;-89
2024/02/05 18:46:31;;;;;;;18.30;5.20;;;;;;;11.84;89.89;99641.23;181808;1253;44253;-89